Time;durP1;ratioP1;P1;durP2;ratioP2;P2;SDS_P1;SDS_P2;PMS_P1;PMS_P2;Temp;Humidity;BMP_temperature;BMP_pressure;BME280_temperature;BME280_humidity;BME280_pressure;Samples;Min_cycle;Max_cycle;Signal;HPM_P1;HPM_P2
2023/10/28 00:00:02;;;;;;;0.15;0.15;;;;;;;18.86;70.68;93582.19;5051056;28;20208;-79
2023/10/28 00:02:28;;;;;;;1.27;0.47;;;;;;;18.99;71.00;93561.34;5038276;28;20212;-79
2023/10/28 00:04:58;;;;;;;0.85;0.77;;;;;;;18.82;71.57;93586.97;5031703;28;20220;-79
2023/10/28 00:07:25;;;;;;;0.52;0.52;;;;;;;18.82;72.01;93586.97;5031744;28;20204;-79
2023/10/28 00:09:52;;;;;;;0.47;0.47;;;;;;;18.74;71.67;93593.69;5039483;28;20546;-78
2023/10/28 00:12:21;;;;;;;0.60;0.60;;;;;;;18.72;70.84;93585.84;5051731;28;20214;-79
2023/10/28 00:14:48;;;;;;;0.20;0.20;;;;;;;18.93;70.13;93584.91;5038128;28;20238;-79
2023/10/28 00:17:15;;;;;;;0.20;0.20;;;;;;;18.91;70.14;93587.25;5051658;28;20211;-78
2023/10/28 00:19:42;;;;;;;0.10;0.10;;;;;;;19.24;67.88;93582.25;5051082;28;20226;-79
2023/10/28 00:22:10;;;;;;;0.20;0.20;;;;;;;19.41;66.84;93571.06;5051559;28;20589;-78
2023/10/28 00:24:37;;;;;;;0.60;0.60;;;;;;;19.57;66.18;93584.25;5051648;28;20207;-79
2023/10/28 00:27:04;;;;;;;0.30;0.30;;;;;;;19.50;66.47;93584.34;5050902;28;20619;-78
2023/10/28 00:29:31;;;;;;;0.15;0.15;;;;;;;19.29;68.13;93573.56;5051628;28;20647;-75
2023/10/28 00:31:58;;;;;;;0.20;0.20;;;;;;;19.34;67.83;93584.09;5050340;28;20580;-76
2023/10/28 00:34:25;;;;;;;0.85;0.85;;;;;;;18.88;71.55;93596.31;5041886;28;20228;-75
2023/10/28 00:36:51;;;;;;;2.10;0.90;;;;;;;18.43;73.84;93589.97;5030630;28;20687;-74
2023/10/28 00:39:20;;;;;;;0.30;0.30;;;;;;;18.21;74.67;93600.28;5031254;28;20204;-74
2023/10/28 00:41:47;;;;;;;0.28;0.28;;;;;;;18.46;72.58;93600.91;5030873;28;20212;-77
2023/10/28 00:44:15;;;;;;;0.20;0.20;;;;;;;18.32;74.65;93598.25;5040961;28;20200;-75
2023/10/28 00:46:42;;;;;;;0.55;0.55;;;;;;;18.14;75.79;93600.34;5050719;28;20204;-75
2023/10/28 00:49:10;;;;;;;0.40;0.40;;;;;;;17.88;77.05;93606.34;5050989;28;20551;-75
2023/10/28 00:51:38;;;;;;;0.10;0.10;;;;;;;17.67;78.08;93616.22;5051117;28;20627;-75
2023/10/28 00:54:05;;;;;;;0.20;0.20;;;;;;;17.51;79.51;93602.16;5050717;28;20588;-74
2023/10/28 00:56:35;;;;;;;1.73;0.70;;;;;;;17.41;79.65;93602.97;5050987;28;20215;-76
2023/10/28 00:59:02;;;;;;;2.83;0.43;;;;;;;17.44;79.73;93607.66;5050589;28;20619;-75
2023/10/28 01:01:29;;;;;;;0.10;0.10;;;;;;;17.38;79.85;93607.28;5051149;28;20259;-76
2023/10/28 01:03:57;;;;;;;1.45;0.85;;;;;;;17.42;79.79;93607.28;5050807;28;20238;-75
2023/10/28 01:06:23;;;;;;;0.20;0.20;;;;;;;17.25;81.21;93610.84;5051004;28;20596;-75
2023/10/28 01:08:50;;;;;;;0.13;0.13;;;;;;;17.37;80.61;93618.63;5050566;28;20211;-76
2023/10/28 01:11:17;;;;;;;0.20;0.20;;;;;;;17.30;81.21;93613.97;5050587;28;20215;-75
2023/10/28 01:13:45;;;;;;;0.20;0.20;;;;;;;17.19;81.75;93624.16;5052478;28;20234;-76
2023/10/28 01:16:12;;;;;;;0.30;0.30;;;;;;;17.11;82.26;93616.31;5050566;28;20222;-75
2023/10/28 01:18:40;;;;;;;0.20;0.20;;;;;;;17.20;81.51;93600.31;5050783;28;20223;-75
2023/10/28 01:21:12;;;;;;;0.10;0.10;;;;;;;17.25;81.33;93621.78;5050406;28;20294;-76
2023/10/28 01:23:40;;;;;;;0.20;0.20;;;;;;;17.09;82.26;93618.66;5050625;28;20569;-76
2023/10/28 01:26:07;;;;;;;0.20;0.20;;;;;;;17.00;82.32;93644.50;5050317;28;20346;-75
2023/10/28 01:28:35;;;;;;;3.40;1.20;;;;;;;16.88;83.14;93631.22;5050778;28;20653;-76
2023/10/28 01:31:02;;;;;;;0.30;0.30;;;;;;;16.93;83.02;93633.56;5050124;28;20204;-76
2023/10/28 01:33:29;;;;;;;0.30;0.30;;;;;;;17.17;81.33;93617.50;5035897;28;20212;-75
2023/10/28 01:35:55;;;;;;;0.73;0.73;;;;;;;17.45;78.60;93620.19;5030619;28;20216;-76
2023/10/28 01:38:24;;;;;;;0.10;0.10;;;;;;;17.56;77.48;93609.97;5030319;28;20208;-75
2023/10/28 01:40:51;;;;;;;0.10;0.10;;;;;;;17.64;77.62;93617.00;5030127;28;20212;-75
2023/10/28 01:43:18;;;;;;;1.08;0.52;;;;;;;17.46;78.75;93619.00;5032588;28;20664;-75
2023/10/28 01:45:45;;;;;;;0.17;0.10;;;;;;;17.38;79.65;93620.97;5052856;28;20290;-76
2023/10/28 01:48:13;;;;;;;0.30;0.30;;;;;;;17.26;81.01;93634.28;5054221;28;20203;-76
2023/10/28 01:50:41;;;;;;;0.10;0.10;;;;;;;17.20;81.69;93605.78;5054274;28;20200;-79
2023/10/28 01:53:08;;;;;;;0.65;0.65;;;;;;;17.14;81.71;93615.56;5053876;28;20251;-78
2023/10/28 01:55:36;;;;;;;0.45;0.28;;;;;;;17.03;82.48;93615.56;5054527;28;20235;-78
2023/10/28 01:58:03;;;;;;;0.20;0.20;;;;;;;17.11;81.73;93616.31;5053794;28;20215;-78
2023/10/28 02:00:31;;;;;;;0.32;0.32;;;;;;;16.95;82.53;93633.16;5053933;28;20203;-77
2023/10/28 02:03:00;;;;;;;0.22;0.22;;;;;;;16.76;83.91;93634.34;5053587;28;20290;-77
2023/10/28 02:05:27;;;;;;;0.20;0.20;;;;;;;16.66;84.38;93624.19;5053909;28;20211;-77
2023/10/28 02:07:53;;;;;;;0.20;0.20;;;;;;;16.50;85.54;93626.50;5053323;28;20664;-78
2023/10/28 02:10:20;;;;;;;0.45;0.40;;;;;;;16.57;84.96;93640.94;5053887;28;20204;-77
2023/10/28 02:12:49;;;;;;;0.63;0.57;;;;;;;16.49;86.10;93635.88;5053601;28;20210;-77
2023/10/28 02:15:16;;;;;;;0.20;0.20;;;;;;;16.38;86.62;93644.06;5053742;28;20288;-77
2023/10/28 02:17:45;;;;;;;0.38;0.30;;;;;;;16.26;86.98;93642.44;5053512;28;20303;-77
2023/10/28 02:20:13;;;;;;;4.03;0.70;;;;;;;16.12;88.20;93649.84;5053506;28;20254;-77
2023/10/28 02:22:40;;;;;;;0.28;0.22;;;;;;;16.08;88.24;93660.75;5053447;28;20208;-77
2023/10/28 02:25:08;;;;;;;0.20;0.20;;;;;;;16.09;88.94;93651.41;5053670;28;20550;-78
2023/10/28 02:27:35;;;;;;;0.28;0.28;;;;;;;15.99;89.75;93652.13;5053242;28;20592;-77
2023/10/28 02:30:04;;;;;;;0.10;0.10;;;;;;;15.96;90.60;93652.94;5053130;28;20212;-78
2023/10/28 02:32:32;;;;;;;0.20;0.20;;;;;;;15.83;91.58;93665.38;5046384;28;20675;-77
2023/10/28 02:34:59;;;;;;;0.20;0.20;;;;;;;15.66;93.04;93660.59;5033113;28;20235;-78
2023/10/28 02:37:26;;;;;;;0.40;0.40;;;;;;;15.58;93.65;93655.09;5033805;28;20219;-77
2023/10/28 02:39:53;;;;;;;0.30;0.30;;;;;;;15.48;94.16;93655.78;5032796;28;20212;-77
2023/10/28 02:42:22;;;;;;;0.20;0.20;;;;;;;15.40;95.44;93665.13;5033487;28;20310;-78
2023/10/28 02:44:49;;;;;;;0.50;0.50;;;;;;;15.34;95.99;93658.44;5033196;28;20204;-77
2023/10/28 02:47:17;;;;;;;0.20;0.20;;;;;;;15.44;96.10;93648.78;5041151;28;20550;-77
2023/10/28 02:49:44;;;;;;;0.85;0.22;;;;;;;15.35;96.90;93651.81;5053264;28;20710;-77
2023/10/28 02:52:11;;;;;;;0.40;0.40;;;;;;;15.43;96.82;93649.94;5053101;28;20232;-77
2023/10/28 02:54:38;;;;;;;0.10;0.10;;;;;;;15.49;96.47;93651.13;5053019;28;20235;-74
2023/10/28 02:57:06;;;;;;;0.20;0.20;;;;;;;15.38;97.20;93661.97;5052134;28;20246;-74
2023/10/28 02:59:33;;;;;;;0.30;0.30;;;;;;;15.33;97.67;93662.34;5052619;28;20204;-74
2023/10/28 03:02:00;;;;;;;0.30;0.30;;;;;;;15.31;98.19;93656.47;5045271;28;20208;-74
2023/10/28 03:04:28;;;;;;;0.45;0.45;;;;;;;15.19;97.77;93654.06;5052237;28;20215;-74
2023/10/28 03:06:55;;;;;;;0.20;0.20;;;;;;;15.09;99.64;93661.03;5048446;28;20223;-74
2023/10/28 03:09:22;;;;;;;0.32;0.32;;;;;;;15.05;100.00;93664.88;5048747;28;20287;-75
2023/10/28 03:11:49;;;;;;;0.30;0.30;;;;;;;15.12;100.00;93659.50;5043142;28;20576;-75
2023/10/28 03:14:16;;;;;;;0.30;0.30;;;;;;;15.11;100.00;93668.81;5044827;28;20227;-74
2023/10/28 03:16:44;;;;;;;0.70;0.70;;;;;;;15.02;100.00;93665.66;5039755;28;20203;-73
2023/10/28 03:19:11;;;;;;;0.47;0.47;;;;;;;14.92;100.00;93670.63;5044405;28;20556;-74
2023/10/28 03:21:40;;;;;;;0.20;0.20;;;;;;;14.81;100.00;93677.97;5044569;28;20227;-74
2023/10/28 03:24:08;;;;;;;0.20;0.20;;;;;;;14.73;100.00;93670.88;5049699;28;20249;-74
2023/10/28 03:26:35;;;;;;;2.00;0.57;;;;;;;14.81;100.00;93672.50;5043095;28;20231;-75
2023/10/28 03:29:02;;;;;;;0.20;0.20;;;;;;;14.80;100.00;93679.13;5042093;28;20294;-74
2023/10/28 03:31:28;;;;;;;0.40;0.40;;;;;;;14.74;100.00;93685.31;5045717;28;20199;-74
2023/10/28 03:33:55;;;;;;;0.20;0.20;;;;;;;14.72;100.00;93690.34;5051824;28;20638;-76
2023/10/28 03:36:23;;;;;;;0.30;0.30;;;;;;;14.72;100.00;93685.69;5048020;28;20572;-76
2023/10/28 03:38:51;;;;;;;0.40;0.40;;;;;;;14.76;100.00;93696.63;5039965;28;20215;-74
2023/10/28 03:41:18;;;;;;;0.17;0.17;;;;;;;14.67;100.00;93693.41;5040060;28;20238;-75
2023/10/28 03:43:45;;;;;;;0.20;0.20;;;;;;;14.66;100.00;93692.63;5041934;28;20658;-75
2023/10/28 03:46:18;;;;;;;0.30;0.30;;;;;;;14.59;100.00;93692.56;5040559;28;20208;-75
2023/10/28 03:48:45;;;;;;;0.32;0.32;;;;;;;14.46;100.00;93704.91;5044075;28;20208;-75
2023/10/28 03:51:11;;;;;;;0.50;0.50;;;;;;;14.39;100.00;93705.56;5046916;28;20219;-75
2023/10/28 03:53:39;;;;;;;1.30;1.20;;;;;;;14.32;100.00;93704.72;5036906;28;20216;-75
2023/10/28 03:56:08;;;;;;;0.45;0.45;;;;;;;14.36;100.00;93711.75;5043340;28;20283;-76
2023/10/28 03:58:35;;;;;;;1.08;1.08;;;;;;;14.43;100.00;93692.03;5045707;28;20215;-74
2023/10/28 04:01:02;;;;;;;0.20;0.20;;;;;;;14.68;100.00;93709.38;5038091;28;20210;-75
2023/10/28 04:03:29;;;;;;;0.35;0.35;;;;;;;14.70;100.00;93709.81;5043987;28;20290;-74
2023/10/28 04:05:56;;;;;;;0.35;0.35;;;;;;;14.71;100.00;93711.38;5049586;28;20200;-76
2023/10/28 04:08:23;;;;;;;0.10;0.10;;;;;;;14.60;100.00;93720.59;5036172;28;20203;-75
2023/10/28 04:10:50;;;;;;;0.40;0.40;;;;;;;14.57;100.00;93711.25;5051059;28;20203;-75
2023/10/28 04:13:18;;;;;;;0.57;0.57;;;;;;;14.67;100.00;93707.81;5047222;28;20611;-75
2023/10/28 04:15:46;;;;;;;0.35;0.35;;;;;;;14.62;100.00;93723.75;5049008;28;20230;-76
2023/10/28 04:18:13;;;;;;;0.30;0.30;;;;;;;14.49;100.00;93712.31;5050682;28;20586;-73
2023/10/28 04:20:40;;;;;;;0.52;0.52;;;;;;;14.32;100.00;93731.97;5043916;28;20213;-75
2023/10/28 04:23:06;;;;;;;0.57;0.30;;;;;;;14.26;100.00;93728.78;5041583;28;20579;-74
2023/10/28 04:25:33;;;;;;;0.20;0.20;;;;;;;14.39;100.00;93721.13;5050977;28;20639;-74
2023/10/28 04:28:01;;;;;;;0.30;0.30;;;;;;;14.52;100.00;93725.19;5034257;28;20208;-76
2023/10/28 04:30:30;;;;;;;0.17;0.17;;;;;;;14.51;100.00;93713.50;5048122;28;20290;-77
2023/10/28 04:32:57;;;;;;;0.47;0.47;;;;;;;14.36;100.00;93732.78;5040727;28;20212;-76
2023/10/28 04:35:34;;;;;;;0.40;0.40;;;;;;;14.26;100.00;93717.09;5042931;28;20222;-76
2023/10/28 04:38:02;;;;;;;1.08;0.35;;;;;;;14.64;100.00;93733.09;5040749;28;20195;-77
2023/10/28 04:40:29;;;;;;;0.20;0.20;;;;;;;14.53;100.00;93727.53;5044325;28;20204;-77
2023/10/28 04:43:01;;;;;;;0.40;0.40;;;;;;;14.55;100.00;93729.91;5039895;28;20203;-77
2023/10/28 04:45:30;;;;;;;0.25;0.25;;;;;;;14.41;100.00;93735.19;5037148;28;20287;-78
2023/10/28 04:47:57;;;;;;;0.20;0.20;;;;;;;14.24;100.00;93740.03;5048735;28;20211;-78
2023/10/28 04:50:28;;;;;;;0.45;0.30;;;;;;;14.32;100.00;93731.97;5046059;28;20200;-79
2023/10/28 04:52:55;;;;;;;0.38;0.38;;;;;;;14.20;100.00;93741.97;5045551;28;20565;-79
2023/10/28 04:55:23;;;;;;;0.20;0.20;;;;;;;14.41;100.00;93751.56;5050836;28;20234;-79
2023/10/28 04:57:50;;;;;;;0.40;0.40;;;;;;;14.39;100.00;93749.16;5034066;28;20213;-79
2023/10/28 05:00:19;;;;;;;0.25;0.25;;;;;;;14.44;100.00;93748.09;5039988;28;20659;-79
2023/10/28 05:02:47;;;;;;;0.25;0.25;;;;;;;14.45;100.00;93752.38;5046223;28;20298;-79
2023/10/28 05:05:14;;;;;;;0.22;0.22;;;;;;;14.56;100.00;93753.28;5048695;28;20302;-79
2023/10/28 05:07:42;;;;;;;0.75;0.75;;;;;;;14.45;100.00;93768.72;5035653;28;20213;-79
2023/10/28 05:10:10;;;;;;;0.20;0.20;;;;;;;14.46;100.00;93756.69;5049496;28;20580;-79
2023/10/28 05:12:38;;;;;;;0.45;0.45;;;;;;;14.37;100.00;93767.03;5043997;28;20197;-78
2023/10/28 05:15:07;;;;;;;0.25;0.25;;;;;;;14.35;100.00;93770.13;5040912;28;20219;-78
2023/10/28 05:17:34;;;;;;;0.68;0.68;;;;;;;14.31;100.00;93771.25;5042304;28;20195;-78
2023/10/28 05:20:06;;;;;;;1.40;0.82;;;;;;;14.27;100.00;93775.88;5048538;28;20571;-79
2023/10/28 05:22:35;;;;;;;0.55;0.55;;;;;;;14.31;100.00;93785.66;5043721;28;20249;-79
2023/10/28 05:25:07;;;;;;;0.40;0.40;;;;;;;14.56;100.00;93785.97;5042740;28;20199;-79
2023/10/28 05:27:33;;;;;;;0.20;0.20;;;;;;;14.74;100.00;93792.41;5048335;28;20274;-79
2023/10/28 05:30:00;;;;;;;0.20;0.20;;;;;;;15.00;100.00;93777.06;5040629;28;20537;-79
2023/10/28 05:32:29;;;;;;;0.20;0.20;;;;;;;15.04;100.00;93788.78;5043424;28;20211;-77
2023/10/28 05:34:57;;;;;;;0.20;0.20;;;;;;;15.08;100.00;93789.59;5040867;28;20224;-78
2023/10/28 05:37:27;;;;;;;0.20;0.20;;;;;;;14.84;100.00;93797.19;5041929;28;20298;-78
2023/10/28 05:39:56;;;;;;;0.28;0.28;;;;;;;14.87;100.00;93812.78;5045845;28;20680;-79
2023/10/28 05:42:27;;;;;;;0.40;0.40;;;;;;;14.80;100.00;93811.94;5041164;28;20200;-79
2023/10/28 05:44:54;;;;;;;0.25;0.22;;;;;;;14.89;100.00;93810.47;5042828;28;20282;-80
2023/10/28 05:47:21;;;;;;;0.15;0.15;;;;;;;14.82;100.00;93810.41;5045038;28;20195;-83
2023/10/28 05:49:48;;;;;;;0.50;0.50;;;;;;;14.92;100.00;93823.34;5042877;28;20212;-80
2023/10/28 05:52:20;;;;;;;0.20;0.20;;;;;;;15.15;100.00;93817.75;5042696;28;20254;-79
2023/10/28 05:54:51;;;;;;;0.20;0.20;;;;;;;15.79;100.00;93825.66;5042029;28;20196;-78
2023/10/28 05:57:20;;;;;;;6.05;0.82;;;;;;;16.38;100.00;93820.94;5041691;28;20211;-80
2023/10/28 05:59:48;;;;;;;0.40;0.40;;;;;;;16.73;99.34;93825.78;5047099;28;20688;-77
2023/10/28 06:02:15;;;;;;;0.30;0.30;;;;;;;16.95;97.67;93828.19;5042011;28;20283;-81
2023/10/28 06:04:42;;;;;;;0.20;0.20;;;;;;;17.44;89.28;93837.66;5051273;28;20570;-82
2023/10/28 06:07:10;;;;;;;0.32;0.32;;;;;;;17.56;87.60;93845.50;5047229;28;20523;-84
2023/10/28 06:09:37;;;;;;;0.52;0.52;;;;;;;17.81;85.85;93847.47;5045396;28;20553;-82
2023/10/28 06:12:06;;;;;;;3.95;0.85;;;;;;;17.91;85.45;93847.44;5043614;28;20205;-82
2023/10/28 06:14:33;;;;;;;3.90;0.55;;;;;;;18.28;84.04;93847.03;5038471;28;20211;-81
2023/10/28 06:17:00;;;;;;;0.85;0.57;;;;;;;18.86;81.14;93836.66;5044900;28;20301;-84
2023/10/28 06:19:27;;;;;;;0.57;0.32;;;;;;;18.86;80.68;93831.94;5042102;28;20206;-83
2023/10/28 06:21:54;;;;;;;0.63;0.63;;;;;;;19.28;78.91;93846.59;5042940;28;20207;-80
2023/10/28 06:24:21;;;;;;;1.95;1.20;;;;;;;19.63;77.53;93846.41;5042030;28;20212;-80
2023/10/28 06:26:49;;;;;;;3.53;1.25;;;;;;;19.44;78.24;93855.16;5040005;28;20228;-82
2023/10/28 06:29:18;;;;;;;1.45;1.15;;;;;;;18.80;80.29;93855.50;5045782;28;20201;-81
2023/10/28 06:31:46;;;;;;;2.30;1.33;;;;;;;18.56;81.49;93879.06;5041893;28;20208;-82
2023/10/28 06:34:13;;;;;;;2.92;1.27;;;;;;;17.87;84.72;93887.00;5045443;28;20667;-82
2023/10/28 06:36:40;;;;;;;0.30;0.30;;;;;;;17.58;86.16;93880.72;5048857;28;20220;-82
2023/10/28 06:39:08;;;;;;;2.47;1.00;;;;;;;17.45;86.43;93882.25;5045601;28;20222;-79
2023/10/28 06:41:38;;;;;;;0.30;0.30;;;;;;;17.30;86.61;93876.75;5045430;28;20207;-80
2023/10/28 06:44:08;;;;;;;0.30;0.30;;;;;;;17.60;85.99;93890.09;5048694;28;20204;-81
2023/10/28 06:46:37;;;;;;;0.80;0.80;;;;;;;17.83;84.74;93897.19;5057326;28;20210;-81
2023/10/28 06:49:04;;;;;;;0.52;0.50;;;;;;;17.96;83.51;93906.56;5044923;28;20255;-80
2023/10/28 06:51:32;;;;;;;0.22;0.20;;;;;;;17.87;83.50;93906.97;5047145;28;20200;-83
2023/10/28 06:54:00;;;;;;;1.20;0.68;;;;;;;18.27;82.64;93911.25;5032421;28;20204;-79
2023/10/28 06:56:29;;;;;;;0.52;0.47;;;;;;;18.52;81.21;93910.44;5047611;28;20227;-81
2023/10/28 06:58:56;;;;;;;0.20;0.20;;;;;;;17.99;83.02;93909.31;5049286;28;20200;-84
2023/10/28 07:01:22;;;;;;;0.32;0.32;;;;;;;18.15;83.07;93919.88;5045124;28;20207;-88
2023/10/28 07:03:51;;;;;;;0.30;0.30;;;;;;;18.44;81.92;93915.94;5043169;28;20204;-77
2023/10/28 07:06:17;;;;;;;2.65;1.13;;;;;;;18.74;81.35;93917.44;5042709;28;20200;-76
2023/10/28 07:08:46;;;;;;;0.50;0.50;;;;;;;19.00;80.09;93913.44;5038970;28;20231;-77
2023/10/28 07:11:13;;;;;;;24.98;1.13;;;;;;;19.01;78.91;93921.28;5045036;28;20208;-82
2023/10/28 07:13:40;;;;;;;0.43;0.43;;;;;;;19.11;78.60;93922.44;5047406;28;20598;-80
2023/10/28 07:16:08;;;;;;;0.40;0.40;;;;;;;19.23;77.72;93932.19;5050570;28;20242;-81
2023/10/28 07:18:35;;;;;;;2.10;0.75;;;;;;;19.23;76.49;93932.19;5050205;28;20560;-78
2023/10/28 07:21:04;;;;;;;1.10;1.00;;;;;;;19.25;76.41;93935.31;5051201;28;20207;-78
2023/10/28 07:23:31;;;;;;;1.70;0.90;;;;;;;19.60;75.42;93935.13;5051104;28;20265;-80
2023/10/28 07:26:01;;;;;;;1.60;1.10;;;;;;;19.75;73.71;93930.34;5050876;28;20270;-78
2023/10/28 07:28:33;;;;;;;1.15;0.77;;;;;;;19.37;75.10;93926.63;5051098;28;20311;-77
2023/10/28 07:31:01;;;;;;;1.50;1.10;;;;;;;19.38;75.43;93939.16;5050727;28;20212;-78
2023/10/28 07:33:28;;;;;;;1.85;1.20;;;;;;;19.52;75.19;93933.63;5043723;28;20199;-80
2023/10/28 07:35:55;;;;;;;1.80;1.25;;;;;;;19.36;75.70;93919.56;5050524;28;20718;-81
2023/10/28 07:38:24;;;;;;;2.05;1.30;;;;;;;19.27;76.17;93922.72;5042569;28;20208;-83
2023/10/28 07:40:52;;;;;;;0.93;0.73;;;;;;;19.46;76.16;93929.69;5055952;28;20229;-83
2023/10/28 07:43:20;;;;;;;1.80;0.80;;;;;;;19.44;75.30;93932.06;5053690;28;20228;-81
2023/10/28 07:45:48;;;;;;;0.50;0.50;;;;;;;19.41;75.53;93949.34;5036804;28;20207;-81
2023/10/28 07:48:15;;;;;;;0.77;0.40;;;;;;;19.74;74.16;93946.03;5042482;28;20204;-79
2023/10/28 07:50:43;;;;;;;1.50;1.15;;;;;;;19.90;73.21;93944.78;5047904;28;20207;-81
2023/10/28 07:53:11;;;;;;;1.45;0.80;;;;;;;19.71;73.83;93941.34;5041187;28;20269;-80
2023/10/28 07:55:39;;;;;;;0.85;0.80;;;;;;;19.92;73.17;93939.66;5042263;28;20283;-84
2023/10/28 07:58:06;;;;;;;1.67;1.05;;;;;;;20.04;72.68;93947.41;5046907;28;20207;-82
2023/10/28 08:00:36;;;;;;;1.33;1.23;;;;;;;20.22;71.78;93948.06;5046708;28;20211;-80
2023/10/28 08:03:03;;;;;;;4.95;1.80;;;;;;;19.55;73.81;93949.28;5047919;28;20204;-82
2023/10/28 08:05:30;;;;;;;0.73;0.73;;;;;;;19.76;73.02;93948.41;5043689;28;20250;-83
2023/10/28 08:08:00;;;;;;;0.98;0.70;;;;;;;20.23;72.16;93963.38;5043685;28;20311;-81
2023/10/28 08:10:27;;;;;;;0.50;0.50;;;;;;;20.03;72.01;93954.09;5044739;28;20200;-80
2023/10/28 08:12:56;;;;;;;0.32;0.32;;;;;;;19.59;73.17;93954.78;5038414;28;20212;-81
2023/10/28 08:15:24;;;;;;;0.35;0.35;;;;;;;19.79;73.77;93945.63;5045733;28;20212;-84
2023/10/28 08:17:51;;;;;;;0.28;0.28;;;;;;;20.10;72.41;93951.28;5033572;28;20200;-86
2023/10/28 08:20:18;;;;;;;0.30;0.30;;;;;;;20.43;71.30;93958.13;5043949;28;20216;-81
2023/10/28 08:22:45;;;;;;;1.58;1.15;;;;;;;20.12;71.11;93948.91;5043027;28;20569;-80
2023/10/28 08:25:15;;;;;;;1.25;0.93;;;;;;;19.85;71.99;93940.47;5035348;28;20204;-78
2023/10/28 08:27:44;;;;;;;0.28;0.28;;;;;;;20.06;71.55;93945.84;5041180;28;20204;-80
2023/10/28 08:30:15;;;;;;;1.17;0.93;;;;;;;19.99;70.97;93947.84;5033211;28;20626;-79
2023/10/28 08:32:42;;;;;;;1.48;0.60;;;;;;;20.23;70.89;93950.41;5050583;28;20200;-82
2023/10/28 08:35:10;;;;;;;3.63;1.35;;;;;;;20.19;70.91;93959.88;5045039;28;20553;-81
2023/10/28 08:37:36;;;;;;;1.95;1.10;;;;;;;20.09;70.77;93960.75;5046975;28;20304;-81
2023/10/28 08:40:08;;;;;;;0.77;0.50;;;;;;;20.44;70.02;93965.97;5038897;28;20200;-81
2023/10/28 08:42:36;;;;;;;1.48;0.70;;;;;;;20.65;69.62;93965.00;5039779;28;20217;-83
2023/10/28 08:45:03;;;;;;;1.73;1.20;;;;;;;20.96;67.70;93962.34;5046886;28;20211;-80
2023/10/28 08:47:33;;;;;;;0.40;0.40;;;;;;;21.05;66.75;93970.88;5041278;28;20192;-80
2023/10/28 08:50:06;;;;;;;0.45;0.45;;;;;;;20.94;67.73;93968.25;5047465;28;20654;-81
2023/10/28 08:52:36;;;;;;;25.30;0.80;;;;;;;20.78;68.03;93962.50;5046769;28;20195;-83
2023/10/28 08:55:04;;;;;;;0.32;0.32;;;;;;;20.98;67.53;93955.22;5048972;28;20208;-78
2023/10/28 08:57:34;;;;;;;0.32;0.32;;;;;;;21.05;67.24;93966.16;5049699;28;20245;-82
2023/10/28 09:00:04;;;;;;;0.38;0.38;;;;;;;21.18;66.42;93969.94;5041425;28;20303;-82
2023/10/28 09:02:35;;;;;;;2.55;0.90;;;;;;;21.49;65.90;93970.00;5049888;28;20207;-82
2023/10/28 09:05:03;;;;;;;0.80;0.80;;;;;;;21.36;65.91;93963.47;5043716;28;20199;-82
2023/10/28 09:07:30;;;;;;;1.70;1.13;;;;;;;21.19;66.28;93960.50;5047821;28;20608;-80
2023/10/28 09:10:00;;;;;;;0.82;0.75;;;;;;;21.22;66.23;93973.47;5047507;28;20225;-84
2023/10/28 09:12:27;;;;;;;3.10;0.80;;;;;;;21.35;66.35;93964.66;5044155;28;20706;-80
2023/10/28 09:14:54;;;;;;;0.73;0.70;;;;;;;21.57;64.35;93969.50;5039638;28;20193;-78
2023/10/28 09:17:20;;;;;;;2.50;0.93;;;;;;;21.59;64.47;93972.63;5038927;28;20235;-77
2023/10/28 09:19:52;;;;;;;0.88;0.77;;;;;;;21.67;63.64;93962.28;5040945;28;20208;-78
2023/10/28 09:22:20;;;;;;;2.08;1.13;;;;;;;21.71;62.52;93965.78;5041152;28;20508;-79
2023/10/28 09:24:47;;;;;;;1.25;0.90;;;;;;;22.06;61.22;93969.25;5042400;28;20302;-80
2023/10/28 09:27:16;;;;;;;1.75;0.90;;;;;;;22.04;61.27;93952.34;5039674;28;20228;-78
2023/10/28 09:29:43;;;;;;;0.60;0.60;;;;;;;21.93;60.22;93958.75;5039881;28;20204;-77
2023/10/28 09:32:13;;;;;;;2.85;0.82;;;;;;;22.07;59.98;93962.53;5043857;28;20989;-79
2023/10/28 09:34:41;;;;;;;3.15;0.60;;;;;;;22.39;59.05;93957.31;5041830;28;20203;-83
2023/10/28 09:37:11;;;;;;;1.52;0.60;;;;;;;22.73;58.09;93959.09;5044872;28;20219;-83
2023/10/28 09:39:41;;;;;;;0.88;0.68;;;;;;;22.67;57.36;93956.84;5040068;28;20251;-78
2023/10/28 09:42:08;;;;;;;1.73;0.60;;;;;;;22.65;57.68;93956.47;5037836;28;20753;-81
2023/10/28 09:44:35;;;;;;;0.93;0.80;;;;;;;22.55;57.53;93960.16;5040866;28;20204;-79
2023/10/28 09:47:03;;;;;;;0.60;0.60;;;;;;;22.55;56.68;93951.13;5038761;28;20243;-79
2023/10/28 09:49:31;;;;;;;2.72;1.55;;;;;;;22.64;57.45;93957.66;5041575;28;20204;-81
2023/10/28 09:52:01;;;;;;;1.63;0.75;;;;;;;22.90;56.69;93960.78;5041213;28;20867;-83
2023/10/28 09:54:35;;;;;;;0.93;0.65;;;;;;;23.24;55.24;93939.19;5041728;28;20207;-81
2023/10/28 09:57:03;;;;;;;0.50;0.50;;;;;;;23.14;51.47;93951.25;5040332;28;20238;-81
2023/10/28 09:59:33;;;;;;;1.02;0.77;;;;;;;23.55;51.80;93947.31;5039182;28;20205;-81
2023/10/28 10:02:14;;;;;;;0.50;0.50;;;;;;;23.12;48.71;93941.81;5039203;28;20203;-78
2023/10/28 10:04:47;;;;;;;1.13;0.60;;;;;;;23.50;48.56;93939.50;5043924;28;20200;-81
2023/10/28 10:07:14;;;;;;;0.85;0.47;;;;;;;23.60;48.21;93933.00;5041404;28;20211;-81
2023/10/28 10:09:43;;;;;;;1.02;0.47;;;;;;;23.85;48.12;93924.91;5046121;28;20706;-81
2023/10/28 10:12:11;;;;;;;0.60;0.60;;;;;;;24.21;47.29;93916.56;5040836;28;20203;-79
2023/10/28 10:14:41;;;;;;;1.30;0.60;;;;;;;24.45;47.36;93914.44;5048008;28;20203;-79
2023/10/28 10:17:19;;;;;;;0.40;0.40;;;;;;;24.18;46.26;93911.13;5048005;28;20220;-81
2023/10/28 10:19:48;;;;;;;0.30;0.30;;;;;;;24.06;46.37;93909.78;5047977;28;20203;-87
2023/10/28 10:22:29;;;;;;;1.48;1.15;;;;;;;24.07;45.94;93900.28;5047985;28;20223;-89
2023/10/28 10:24:57;;;;;;;0.47;0.47;;;;;;;24.28;45.65;93905.34;5042586;28;20207;-80
2023/10/28 10:27:35;;;;;;;2.00;0.50;;;;;;;24.25;45.42;93905.44;5045142;28;20327;-85
2023/10/28 10:30:07;;;;;;;1.60;0.40;;;;;;;24.14;44.26;93910.44;5041482;28;20201;-87
2023/10/28 10:32:52;;;;;;;0.75;0.47;;;;;;;24.31;45.06;93920.31;5045285;28;20228;-85
2023/10/28 10:35:28;;;;;;;0.82;0.70;;;;;;;24.54;44.47;93922.13;5045717;28;20196;-82
2023/10/28 10:38:02;;;;;;;0.25;0.25;;;;;;;24.46;43.88;93910.47;5044971;28;20219;-81
2023/10/28 10:40:32;;;;;;;0.40;0.40;;;;;;;24.32;41.98;93902.50;5044264;28;20203;-83
2023/10/28 10:43:05;;;;;;;0.30;0.30;;;;;;;24.34;42.90;93903.59;5044626;28;20192;-86
2023/10/28 10:45:34;;;;;;;1.25;0.60;;;;;;;24.12;43.27;93901.78;5042244;28;20196;-80
2023/10/28 10:48:02;;;;;;;0.40;0.40;;;;;;;24.11;43.36;93917.59;5042561;28;20200;-86
2023/10/28 10:50:31;;;;;;;0.43;0.30;;;;;;;24.49;42.45;93912.34;5050002;28;20200;-88
2023/10/28 10:53:00;;;;;;;1.08;0.40;;;;;;;24.70;41.54;93909.03;5045435;28;20192;-85
2023/10/28 10:55:28;;;;;;;0.68;0.68;;;;;;;25.04;40.92;93905.00;5043812;28;20204;-82
2023/10/28 10:57:57;;;;;;;0.30;0.30;;;;;;;24.84;41.08;93891.25;5048106;28;20266;-83
2023/10/28 11:00:24;;;;;;;2.75;0.40;;;;;;;24.31;41.98;93903.72;5034068;28;20577;-84
2023/10/28 11:02:53;;;;;;;0.50;0.50;;;;;;;24.71;41.52;93899.50;5039713;28;20219;-85
2023/10/28 11:05:20;;;;;;;0.82;0.32;;;;;;;24.58;41.37;93895.91;5055155;28;20587;-84
2023/10/28 11:07:47;;;;;;;1.77;0.40;;;;;;;24.64;41.80;93905.22;5039277;28;20232;-83
2023/10/28 11:10:13;;;;;;;1.13;0.55;;;;;;;24.59;41.63;93902.22;5033576;28;20204;-82
2023/10/28 11:12:42;;;;;;;0.30;0.30;;;;;;;24.53;40.95;93898.41;5032789;28;20307;-82
2023/10/28 11:15:11;;;;;;;0.50;0.43;;;;;;;24.64;43.12;93905.22;5032427;28;20262;-82
2023/10/28 11:17:39;;;;;;;1.33;0.70;;;;;;;24.71;41.19;93910.59;5050087;28;20241;-84
2023/10/28 11:20:09;;;;;;;0.75;0.52;;;;;;;24.71;41.68;93899.50;5053692;28;20218;-83
2023/10/28 11:22:37;;;;;;;0.80;0.40;;;;;;;24.61;40.09;93905.31;5053463;28;20210;-85
2023/10/28 11:25:05;;;;;;;0.65;0.40;;;;;;;24.87;41.42;93907.03;5053818;28;20212;-82
2023/10/28 11:27:32;;;;;;;0.63;0.40;;;;;;;24.62;40.67;93910.41;5055261;28;20309;-82
2023/10/28 11:29:59;;;;;;;1.23;0.98;;;;;;;24.73;40.02;93908.19;5055926;28;20203;-81
2023/10/28 11:32:28;;;;;;;0.40;0.40;;;;;;;24.92;39.42;93909.25;5054029;28;20204;-80
2023/10/28 11:34:56;;;;;;;0.55;0.55;;;;;;;24.83;38.97;93911.09;5053535;28;20235;-80